Time,TemperatureF,DewpointF,PressureIn,WindDirection,WindDirectionDegrees,WindSpeedMPH,WindSpeedGustMPH,Humidity,HourlyPrecipIn,Conditions,Clouds,dailyrainin,SoftwareType,DateUTC
2013-09-08 00:00:00,67.0,58.0,29.88,SW,230,20.0,21.0,74,-99.99,,,-99.99,,2013-09-08 04:00:00,
2013-09-08 00:43:00,67.0,58.0,29.88,SW,230,20.0,21.0,74,-99.99,,,-99.99,,2013-09-08 04:43:00,
2013-09-08 00:53:00,67.0,58.0,29.88,SW,230,20.0,21.0,74,-99.99,,,-99.99,,2013-09-08 04:53:00,
2013-09-08 01:00:00,67.0,59.0,29.87,WSW,240,21.0,23.0,75,-99.99,,,-99.99,,2013-09-08 05:00:00,
2013-09-08 01:23:00,67.0,59.0,29.87,WSW,240,21.0,23.0,75,-99.99,,,-99.99,,2013-09-08 05:23:00,
2013-09-08 01:34:00,67.0,59.0,29.87,WSW,240,21.0,23.0,75,-99.99,,,-99.99,,2013-09-08 05:34:00,
2013-09-08 01:42:00,67.0,59.0,29.87,WSW,240,21.0,23.0,75,-99.99,,,-99.99,,2013-09-08 05:42:00,
2013-09-08 01:52:00,67.0,59.0,29.87,WSW,240,21.0,23.0,75,-99.99,,,-99.99,,2013-09-08 05:52:00,
2013-09-08 02:00:00,67.0,60.0,29.85,WSW,240,18.0,21.0,79,-99.99,,,-99.99,,2013-09-08 06:00:00,
2013-09-08 02:42:00,67.0,60.0,29.85,WSW,240,18.0,21.0,79,-99.99,,,-99.99,,2013-09-08 06:42:00,
2013-09-08 02:53:00,67.0,60.0,29.85,WSW,240,18.0,21.0,79,-99.99,,,-99.99,,2013-09-08 06:53:00,
2013-09-08 03:00:00,67.0,61.0,29.83,WSW,240,21.0,22.0,82,-99.99,,,-99.99,,2013-09-08 07:00:00,
2013-09-08 03:42:00,67.0,61.0,29.83,WSW,240,21.0,22.0,82,-99.99,,,-99.99,,2013-09-08 07:42:00,
2013-09-08 03:52:00,67.0,61.0,29.83,WSW,240,21.0,22.0,82,-99.99,,,-99.99,,2013-09-08 07:52:00,
2013-09-08 04:00:00,67.0,63.0,29.82,SW,230,17.0,20.0,86,-99.99,,,-99.99,,2013-09-08 08:00:00,
2013-09-08 04:42:00,67.0,63.0,29.82,SW,230,17.0,20.0,86,-99.99,,,-99.99,,2013-09-08 08:42:00,
2013-09-08 04:52:00,67.0,63.0,29.82,SW,230,17.0,20.0,86,-99.99,,,-99.99,,2013-09-08 08:52:00,
2013-09-08 05:00:00,67.0,65.0,29.78,SW,220,18.0,20.0,92,-99.99,,,-99.99,,2013-09-08 09:00:00,
2013-09-08 05:43:00,67.0,65.0,29.78,SW,220,18.0,20.0,92,-99.99,,,-99.99,,2013-09-08 09:43:00,
2013-09-08 05:53:00,67.0,65.0,29.78,SW,220,18.0,20.0,92,-99.99,,,-99.99,,2013-09-08 09:53:00,
2013-09-08 06:00:00,67.0,66.0,29.79,WSW,240,17.0,18.0,95,-99.99,,,-99.99,,2013-09-08 10:00:00,
2013-09-08 06:42:00,67.0,66.0,29.79,WSW,240,17.0,18.0,95,-99.99,,,-99.99,,2013-09-08 10:42:00,
2013-09-08 06:53:00,67.0,66.0,29.79,WSW,240,17.0,18.0,95,-99.99,,,-99.99,,2013-09-08 10:53:00,
2013-09-08 07:00:00,67.0,63.0,29.78,SW,230,16.0,18.0,84,-99.99,,,-99.99,,2013-09-08 11:00:00,
2013-09-08 07:42:00,67.0,63.0,29.78,SW,230,16.0,18.0,84,-99.99,,,-99.99,,2013-09-08 11:42:00,
2013-09-08 07:52:00,67.0,63.0,29.78,SW,230,16.0,18.0,84,-99.99,,,-99.99,,2013-09-08 11:52:00,
2013-09-08 08:00:00,67.0,62.0,29.77,WSW,240,21.0,22.0,84,-99.99,,,-99.99,,2013-09-08 12:00:00,
2013-09-08 08:42:00,67.0,62.0,29.77,WSW,240,21.0,22.0,84,-99.99,,,-99.99,,2013-09-08 12:42:00,
2013-09-08 08:52:00,67.0,62.0,29.77,WSW,240,21.0,22.0,84,-99.99,,,-99.99,,2013-09-08 12:52:00,
2013-09-08 09:00:00,67.0,63.0,29.78,WSW,250,20.0,21.0,86,-99.99,,,-99.99,,2013-09-08 13:00:00,
2013-09-08 09:41:00,67.0,63.0,29.78,WSW,250,20.0,21.0,86,-99.99,,,-99.99,,2013-09-08 13:41:00,
2013-09-08 09:52:00,67.0,63.0,29.78,WSW,250,20.0,21.0,86,-99.99,,,-99.99,,2013-09-08 13:52:00,
2013-09-08 10:00:00,67.0,64.0,29.77,WSW,250,20.0,22.0,89,-99.99,,,-99.99,,2013-09-08 14:00:00,
2013-09-08 10:42:00,67.0,64.0,29.77,WSW,250,20.0,22.0,89,-99.99,,,-99.99,,2013-09-08 14:42:00,
2013-09-08 10:52:00,67.0,64.0,29.77,WSW,250,20.0,22.0,89,-99.99,,,-99.99,,2013-09-08 14:52:00,
2013-09-08 11:00:00,67.0,64.0,29.76,WSW,250,20.0,21.0,92,-99.99,,,-99.99,,2013-09-08 15:00:00,
2013-09-08 11:44:00,67.0,64.0,29.76,WSW,250,20.0,21.0,92,-99.99,,,-99.99,,2013-09-08 15:44:00,
2013-09-08 11:54:00,67.0,64.0,29.76,WSW,250,20.0,21.0,92,-99.99,,,-99.99,,2013-09-08 15:54:00,
2013-09-08 12:00:00,68.0,62.0,29.76,WSW,240,17.0,18.0,82,-99.99,,,-99.99,,2013-09-08 16:00:00,
2013-09-08 12:43:00,68.0,62.0,29.76,WSW,240,17.0,18.0,82,-99.99,,,-99.99,,2013-09-08 16:43:00,
2013-09-08 12:53:00,68.0,62.0,29.76,WSW,240,17.0,18.0,82,-99.99,,,-99.99,,2013-09-08 16:53:00,
2013-09-08 13:00:00,68.0,61.0,29.76,WSW,250,20.0,21.0,76,-99.99,,,-99.99,,2013-09-08 17:00:00,
2013-09-08 13:43:00,68.0,61.0,29.76,WSW,250,20.0,21.0,76,-99.99,,,-99.99,,2013-09-08 17:43:00,
2013-09-08 13:53:00,68.0,61.0,29.76,WSW,250,20.0,21.0,76,-99.99,,,-99.99,,2013-09-08 17:53:00,
2013-09-08 14:00:00,72.0,59.0,29.76,NNW,330,18.0,18.0,63,-99.99,,,-99.99,,2013-09-08 18:00:00,
2013-09-08 14:42:00,72.0,59.0,29.76,NNW,330,18.0,18.0,63,-99.99,,,-99.99,,2013-09-08 18:42:00,
2013-09-08 14:52:00,72.0,59.0,29.76,NNW,330,18.0,18.0,63,-99.99,,,-99.99,,2013-09-08 18:52:00,
2013-09-08 15:00:00,73.0,58.0,29.77,NW,320,14.0,15.0,57,-99.99,,,-99.99,,2013-09-08 19:00:00,
2013-09-08 15:42:00,73.0,58.0,29.77,NW,320,14.0,15.0,57,-99.99,,,-99.99,,2013-09-08 19:42:00,
2013-09-08 15:52:00,73.0,58.0,29.77,NW,320,14.0,15.0,57,-99.99,,,-99.99,,2013-09-08 19:52:00,
2013-09-08 16:00:00,73.0,57.0,29.78,NNW,340,20.0,21.0,57,-99.99,,,-99.99,,2013-09-08 20:00:00,
2013-09-08 16:42:00,73.0,57.0,29.78,NNW,340,20.0,21.0,57,-99.99,,,-99.99,,2013-09-08 20:42:00,
2013-09-08 16:53:00,73.0,57.0,29.78,NNW,340,20.0,21.0,57,-99.99,,,-99.99,,2013-09-08 20:53:00,
2013-09-08 17:00:00,72.0,48.0,29.82,NW,320,21.0,22.0,43,-99.99,,,-99.99,,2013-09-08 21:00:00,
2013-09-08 17:54:00,72.0,48.0,29.82,NW,320,21.0,22.0,43,-99.99,,,-99.99,,2013-09-08 21:54:00,
2013-09-08 18:00:00,70.0,47.0,29.85,NW,320,21.0,24.0,43,-99.99,,,-99.99,,2013-09-08 22:00:00,
2013-09-08 18:43:00,70.0,47.0,29.85,NW,320,21.0,24.0,43,-99.99,,,-99.99,,2013-09-08 22:43:00,
2013-09-08 18:53:00,70.0,47.0,29.85,NW,320,21.0,24.0,43,-99.99,,,-99.99,,2013-09-08 22:53:00,
2013-09-08 19:00:00,69.0,46.0,29.88,NNW,330,22.0,23.0,44,-99.99,,,-99.99,,2013-09-08 23:00:00,
2013-09-08 19:42:00,69.0,46.0,29.88,NNW,330,22.0,23.0,44,-99.99,,,-99.99,,2013-09-08 23:42:00,
2013-09-08 19:52:00,69.0,46.0,29.88,NNW,330,22.0,23.0,44,-99.99,,,-99.99,,2013-09-08 23:52:00,
2013-09-08 20:00:00,67.0,44.0,29.93,North,360,18.0,20.0,43,-99.99,,,-99.99,,2013-09-09 00:00:00,
2013-09-08 20:42:00,67.0,44.0,29.93,North,360,18.0,20.0,43,-99.99,,,-99.99,,2013-09-09 00:42:00,
2013-09-08 20:52:00,67.0,44.0,29.93,North,360,18.0,20.0,43,-99.99,,,-99.99,,2013-09-09 00:52:00,
2013-09-08 21:00:00,63.0,41.0,29.98,North,360,23.0,25.0,43,-99.99,,,-99.99,,2013-09-09 01:00:00,
2013-09-08 21:42:00,63.0,41.0,29.98,North,360,23.0,25.0,43,-99.99,,,-99.99,,2013-09-09 01:42:00,
2013-09-08 21:52:00,63.0,41.0,29.98,North,360,23.0,25.0,43,-99.99,,,-99.99,,2013-09-09 01:52:00,
2013-09-08 22:00:00,62.0,42.0,30.01,North,10,24.0,26.0,47,-99.99,,,-99.99,,2013-09-09 02:00:00,
2013-09-08 22:42:00,62.0,42.0,30.01,North,10,24.0,26.0,47,-99.99,,,-99.99,,2013-09-09 02:42:00,
2013-09-08 22:52:00,62.0,42.0,30.01,North,10,24.0,26.0,47,-99.99,,,-99.99,,2013-09-09 02:52:00,
2013-09-08 23:00:00,61.0,42.0,30.05,North,10,20.0,22.0,51,-99.99,,,-99.99,,2013-09-09 03:00:00,
2013-09-08 23:44:00,61.0,42.0,30.05,North,10,20.0,22.0,51,-99.99,,,-99.99,,2013-09-09 03:44:00,
2013-09-08 23:55:00,61.0,42.0,30.05,North,10,20.0,22.0,51,-99.99,,,-99.99,,2013-09-09 03:55:00,